createdAt,value
2018-03-26T00:00:46.855Z,0
2018-03-26T00:01:46.580Z,0
2018-03-26T00:02:46.306Z,0
2018-03-26T00:03:46.029Z,0
2018-03-26T00:04:46.790Z,0
2018-03-26T00:05:46.765Z,0
2018-03-26T00:06:46.753Z,0
2018-03-26T00:07:46.487Z,0
2018-03-26T00:08:46.736Z,0
2018-03-26T00:09:46.731Z,0
2018-03-26T00:10:46.186Z,0
2018-03-26T00:11:46.435Z,0
2018-03-26T00:12:46.666Z,0
2018-03-26T00:13:46.647Z,0
2018-03-26T00:14:46.633Z,0
2018-03-26T00:15:46.610Z,0
2018-03-26T00:16:46.345Z,0
2018-03-26T00:17:46.321Z,0
2018-03-26T00:18:46.304Z,0
2018-03-26T00:19:46.556Z,0
2018-03-26T00:20:46.077Z,0
2018-03-26T00:21:46.520Z,0
2018-03-26T00:22:45.730Z,0
2018-03-26T00:23:46.486Z,0
2018-03-26T00:24:46.483Z,0
2018-03-26T00:25:46.456Z,0
2018-03-26T00:26:46.444Z,0
2018-03-26T00:27:46.186Z,0
2018-03-26T00:28:45.895Z,0
2018-03-26T00:29:45.892Z,0
2018-03-26T00:30:45.862Z,0
2018-03-26T00:31:46.100Z,0
2018-03-26T00:32:46.094Z,0
2018-03-26T00:33:46.068Z,0
2018-03-26T00:34:45.602Z,0
2018-03-26T00:35:46.038Z,0
2018-03-26T00:36:46.021Z,0
2018-03-26T00:37:46.006Z,0
2018-03-26T00:38:45.733Z,0
2018-03-26T00:39:45.971Z,0
2018-03-26T00:40:45.950Z,0
2018-03-26T00:41:45.941Z,0
2018-03-26T00:42:45.929Z,0
2018-03-26T00:43:46.032Z,0
2018-03-26T00:44:45.645Z,0
2018-03-26T00:45:45.620Z,0
2018-03-26T00:46:45.602Z,0
2018-03-26T00:47:46.116Z,0
2018-03-26T00:48:45.321Z,0
2018-03-26T00:49:46.071Z,0
2018-03-26T00:50:45.544Z,0
2018-03-26T00:51:45.526Z,0
2018-03-26T00:52:45.529Z,0
2018-03-26T00:53:45.747Z,0
2018-03-26T00:54:45.474Z,0
2018-03-26T00:55:45.459Z,0
2018-03-26T00:56:45.449Z,0
2018-03-26T00:57:45.689Z,0
2018-03-26T00:58:45.669Z,0
2018-03-26T00:59:45.663Z,0
2018-03-26T01:00:45.897Z,0
2018-03-26T01:01:45.656Z,0
2018-03-26T01:02:45.602Z,0
2018-03-26T01:03:45.854Z,0
2018-03-26T01:04:45.575Z,0
2018-03-26T01:05:45.301Z,0
2018-03-26T01:06:45.546Z,0
2018-03-26T01:07:45.009Z,0
2018-03-26T01:08:45.265Z,0
2018-03-26T01:09:45.494Z,0
2018-03-26T01:10:45.745Z,0
2018-03-26T01:11:45.463Z,0
2018-03-26T01:12:45.192Z,0
2018-03-26T01:13:45.167Z,0
2018-03-26T01:14:45.149Z,0
2018-03-26T01:15:45.147Z,0
2018-03-26T01:16:45.121Z,0
2018-03-26T01:17:45.375Z,0
2018-03-26T01:18:45.343Z,0
2018-03-26T01:19:45.333Z,0
2018-03-26T01:20:45.318Z,0
2018-03-26T01:21:45.051Z,0
2018-03-26T01:22:45.039Z,0
2018-03-26T01:23:45.016Z,0
2018-03-26T01:24:44.747Z,0
2018-03-26T01:25:45.498Z,0
2018-03-26T01:26:44.964Z,0
2018-03-26T01:27:44.692Z,0
2018-03-26T01:28:45.202Z,0
2018-03-26T01:29:44.402Z,0
2018-03-26T01:30:45.156Z,0
2018-03-26T01:31:44.886Z,0
2018-03-26T01:32:45.124Z,0
2018-03-26T01:33:45.154Z,0
2018-03-26T01:34:44.587Z,0
2018-03-26T01:35:44.830Z,0
2018-03-26T01:36:44.547Z,0
2018-03-26T01:37:45.050Z,0
2018-03-26T01:38:45.299Z,0
2018-03-26T01:39:44.505Z,0
2018-03-26T01:40:44.755Z,0
2018-03-26T01:41:44.732Z,0
2018-03-26T01:42:44.713Z,0
2018-03-26T01:43:45.217Z,0
2018-03-26T01:44:44.947Z,0
2018-03-26T01:45:45.184Z,0
2018-03-26T01:46:44.652Z,0
2018-03-26T01:47:44.891Z,0
2018-03-26T01:48:44.622Z,0
2018-03-26T01:49:44.595Z,0
2018-03-26T01:50:45.104Z,0
2018-03-26T01:51:44.309Z,0
2018-03-26T01:52:44.561Z,0
2018-03-26T01:53:45.043Z,0
2018-03-26T01:54:44.784Z,0
2018-03-26T01:55:45.029Z,0
2018-03-26T01:56:44.749Z,0
2018-03-26T01:57:44.214Z,0
2018-03-26T01:58:44.979Z,0
2018-03-26T01:59:44.697Z,0
2018-03-26T02:00:44.684Z,0
2018-03-26T02:01:44.922Z,0
2018-03-26T02:02:44.709Z,0
2018-03-26T02:03:44.634Z,0
2018-03-26T02:04:44.649Z,0
2018-03-26T02:05:44.861Z,0
2018-03-26T02:06:44.589Z,0
2018-03-26T02:07:44.585Z,0
2018-03-26T02:08:44.550Z,0
2018-03-26T02:09:44.807Z,0
2018-03-26T02:10:44.533Z,0
2018-03-26T02:11:44.509Z,0
2018-03-26T02:12:43.977Z,0
2018-03-26T02:13:44.485Z,0
2018-03-26T02:14:44.461Z,0
2018-03-26T02:15:44.444Z,0
2018-03-26T02:16:44.444Z,0
2018-03-26T02:17:44.687Z,0
2018-03-26T02:18:44.399Z,0
2018-03-26T02:19:44.632Z,0
2018-03-26T02:20:44.618Z,0
2018-03-26T02:21:44.355Z,0
2018-03-26T02:22:44.591Z,0
2018-03-26T02:23:44.065Z,0
2018-03-26T02:24:44.558Z,0
2018-03-26T02:25:44.287Z,0
2018-03-26T02:26:44.465Z,0
2018-03-26T02:27:44.513Z,0
2018-03-26T02:28:43.975Z,0
2018-03-26T02:29:44.237Z,0
2018-03-26T02:30:44.208Z,0
2018-03-26T02:31:44.216Z,0
2018-03-26T02:32:44.210Z,0
2018-03-26T02:33:43.911Z,0
2018-03-26T02:34:44.414Z,0
2018-03-26T02:35:44.123Z,0
2018-03-26T02:36:44.118Z,0
2018-03-26T02:37:44.370Z,0
2018-03-26T02:38:43.837Z,0
2018-03-26T02:39:43.810Z,0
2018-03-26T02:40:43.793Z,0
2018-03-26T02:41:44.039Z,0
2018-03-26T02:42:44.300Z,0
2018-03-26T02:43:44.258Z,0
2018-03-26T02:44:43.730Z,0
2018-03-26T02:45:43.717Z,0
2018-03-26T02:46:43.962Z,0
2018-03-26T02:47:43.953Z,0
2018-03-26T02:48:44.191Z,0
2018-03-26T02:49:43.647Z,0
2018-03-26T02:50:43.780Z,0
2018-03-26T02:51:43.877Z,0
2018-03-26T02:52:43.349Z,0
2018-03-26T02:53:43.850Z,0
2018-03-26T02:54:43.836Z,0
2018-03-26T02:55:43.813Z,0
2018-03-26T02:56:43.548Z,0
2018-03-26T02:57:43.265Z,0
2018-03-26T02:58:43.770Z,0
2018-03-26T02:59:43.747Z,0
2018-03-26T03:00:43.476Z,0
2018-03-26T03:01:43.211Z,0
2018-03-26T03:02:43.451Z,0
2018-03-26T03:03:43.431Z,0
2018-03-26T03:04:43.935Z,0
2018-03-26T03:05:43.389Z,0
2018-03-26T03:06:43.649Z,0
2018-03-26T03:07:43.624Z,0
2018-03-26T03:08:43.863Z,0
2018-03-26T03:09:43.594Z,0
2018-03-26T03:10:44.021Z,0
2018-03-26T03:11:43.557Z,0
2018-03-26T03:12:43.288Z,0
2018-03-26T03:13:43.270Z,0
2018-03-26T03:14:43.249Z,0
2018-03-26T03:15:43.241Z,0
2018-03-26T03:16:43.212Z,0
2018-03-26T03:17:43.202Z,0
2018-03-26T03:18:43.444Z,0
2018-03-26T03:19:43.176Z,0
2018-03-26T03:20:43.414Z,0
2018-03-26T03:21:43.659Z,0
2018-03-26T03:22:43.700Z,0
2018-03-26T03:23:43.376Z,0
2018-03-26T03:24:43.606Z,0
2018-03-26T03:25:43.328Z,0
2018-03-26T03:26:42.824Z,0
2018-03-26T03:27:42.777Z,0
2018-03-26T03:28:43.292Z,0
2018-03-26T03:29:42.753Z,0
2018-03-26T03:30:43.004Z,0
2018-03-26T03:31:43.523Z,0
2018-03-26T03:32:43.492Z,0
2018-03-26T03:33:42.947Z,0
2018-03-26T03:34:43.199Z,0
2018-03-26T03:35:42.660Z,0
2018-03-26T03:36:43.156Z,0
2018-03-26T03:37:43.144Z,0
2018-03-26T03:38:42.879Z,0
2018-03-26T03:39:42.849Z,0
2018-03-26T03:40:43.093Z,0
2018-03-26T03:41:43.074Z,0
2018-03-26T03:42:43.065Z,0
2018-03-26T03:43:43.047Z,0
2018-03-26T03:44:43.037Z,0
2018-03-26T03:45:43.027Z,0
2018-03-26T03:46:42.740Z,0
2018-03-26T03:47:42.991Z,0
2018-03-26T03:48:42.717Z,0
2018-03-26T03:49:42.694Z,0
2018-03-26T03:50:43.188Z,0
2018-03-26T03:51:42.401Z,0
2018-03-26T03:52:42.903Z,0
2018-03-26T03:53:42.626Z,0
2018-03-26T03:54:42.872Z,0
2018-03-26T03:55:42.861Z,0
2018-03-26T03:56:42.318Z,0
2018-03-26T03:57:42.564Z,0
2018-03-26T03:58:42.551Z,0
2018-03-26T03:59:43.053Z,0
2018-03-26T04:00:42.509Z,0
2018-03-26T04:01:42.242Z,0
2018-03-26T04:02:42.735Z,0
2018-03-26T04:03:42.723Z,0
2018-03-26T04:04:42.462Z,0
2018-03-26T04:05:42.696Z,0
2018-03-26T04:06:42.682Z,0
2018-03-26T04:07:42.401Z,0
2018-03-26T04:08:42.129Z,0
2018-03-26T04:09:42.627Z,0
2018-03-26T04:10:42.357Z,0
2018-03-26T04:11:42.597Z,0
2018-03-26T04:12:42.578Z,0
2018-03-26T04:13:42.566Z,0
2018-03-26T04:14:42.038Z,0
2018-03-26T04:15:42.530Z,0
2018-03-26T04:16:42.259Z,0
2018-03-26T04:17:42.249Z,0
2018-03-26T04:18:42.494Z,0
2018-03-26T04:19:42.481Z,0
2018-03-26T04:20:42.198Z,0
2018-03-26T04:21:42.449Z,0
2018-03-26T04:22:42.173Z,0
2018-03-26T04:23:42.404Z,0
2018-03-26T04:24:42.132Z,0
2018-03-26T04:25:42.374Z,0
2018-03-26T04:26:42.102Z,0
2018-03-26T04:27:41.825Z,0
2018-03-26T04:28:42.322Z,0
2018-03-26T04:29:42.358Z,0
2018-03-26T04:30:42.286Z,0
2018-03-26T04:31:42.021Z,0
2018-03-26T04:32:42.528Z,0
2018-03-26T04:33:42.508Z,0
2018-03-26T04:34:42.480Z,0
2018-03-26T04:35:41.970Z,0
2018-03-26T04:36:41.681Z,0
2018-03-26T04:37:42.443Z,0
2018-03-26T04:38:42.435Z,0
2018-03-26T04:39:42.140Z,0
2018-03-26T04:40:42.144Z,0
2018-03-26T04:41:42.238Z,0
2018-03-26T04:42:42.357Z,0
2018-03-26T04:43:42.340Z,0
2018-03-26T04:44:41.811Z,0
2018-03-26T04:45:42.067Z,0
2018-03-26T04:46:42.051Z,0
2018-03-26T04:47:42.328Z,0
2018-03-26T04:48:42.074Z,0
2018-03-26T04:49:41.732Z,0
2018-03-26T04:50:41.718Z,0
2018-03-26T04:51:41.963Z,0
2018-03-26T04:52:41.679Z,0
2018-03-26T04:53:41.926Z,0
2018-03-26T04:54:41.915Z,0
2018-03-26T04:55:41.902Z,0
2018-03-26T04:56:41.618Z,0
2018-03-26T04:57:41.607Z,0
2018-03-26T04:58:41.838Z,0
2018-03-26T04:59:41.827Z,0
2018-03-26T05:00:42.064Z,0
2018-03-26T05:01:42.050Z,0
2018-03-26T05:02:41.521Z,0
2018-03-26T05:03:41.512Z,0
2018-03-26T05:04:41.504Z,0
2018-03-26T05:05:41.478Z,0
2018-03-26T05:06:41.972Z,0
2018-03-26T05:07:41.708Z,0
2018-03-26T05:08:41.684Z,0
2018-03-26T05:09:41.152Z,0
2018-03-26T05:10:41.401Z,0
2018-03-26T05:11:41.635Z,0
2018-03-26T05:12:41.369Z,0
2018-03-26T05:13:41.342Z,0
2018-03-26T05:14:41.340Z,0
2018-03-26T05:15:41.579Z,0
2018-03-26T05:16:41.558Z,0
2018-03-26T05:17:41.022Z,0
2018-03-26T05:18:41.006Z,0
2018-03-26T05:19:41.515Z,0
2018-03-26T05:20:41.497Z,0
2018-03-26T05:21:41.729Z,5
2018-03-26T05:22:41.512Z,5
2018-03-26T05:23:41.699Z,5
2018-03-26T05:24:41.165Z,5
2018-03-26T05:25:41.406Z,5
2018-03-26T05:26:41.389Z,5
2018-03-26T05:27:41.372Z,5
2018-03-26T05:28:41.636Z,5
2018-03-26T05:29:41.084Z,5
2018-03-26T05:30:41.070Z,5
2018-03-26T05:31:40.804Z,5
2018-03-26T05:32:41.294Z,5
2018-03-26T05:33:41.283Z,10
2018-03-26T05:34:41.261Z,10
2018-03-26T05:35:41.235Z,10
2018-03-26T05:36:41.488Z,10
2018-03-26T05:37:41.476Z,10
2018-03-26T05:38:41.200Z,10
2018-03-26T05:39:41.178Z,10
2018-03-26T05:40:41.256Z,15
2018-03-26T05:41:41.148Z,15
2018-03-26T05:42:40.883Z,15
2018-03-26T05:43:41.379Z,15
2018-03-26T05:44:41.356Z,15
2018-03-26T05:45:41.093Z,15
2018-03-26T05:46:41.078Z,15
2018-03-26T05:47:41.307Z,15
2018-03-26T05:48:41.040Z,20
2018-03-26T05:49:40.764Z,20
2018-03-26T05:50:40.748Z,20
2018-03-26T05:51:41.245Z,20
2018-03-26T05:52:41.302Z,20
2018-03-26T05:53:40.964Z,20
2018-03-26T05:54:40.692Z,25
2018-03-26T05:55:40.412Z,25
2018-03-26T05:56:40.916Z,25
2018-03-26T05:57:40.899Z,25
2018-03-26T05:58:40.884Z,30
2018-03-26T05:59:40.871Z,30
2018-03-26T06:00:40.885Z,30
2018-03-26T06:01:41.087Z,35
2018-03-26T06:02:40.556Z,35
2018-03-26T06:03:40.802Z,35
2018-03-26T06:04:40.792Z,40
2018-03-26T06:05:41.031Z,40
2018-03-26T06:06:40.756Z,40
2018-03-26T06:07:40.478Z,40
2018-03-26T06:08:40.202Z,45
2018-03-26T06:09:40.449Z,45
2018-03-26T06:10:40.436Z,50
2018-03-26T06:11:40.938Z,50
2018-03-26T06:12:40.653Z,55
2018-03-26T06:13:40.647Z,55
2018-03-26T06:14:40.640Z,60
2018-03-26T06:15:41.009Z,60
2018-03-26T06:16:40.847Z,60
2018-03-26T06:17:40.066Z,60
2018-03-26T06:18:40.301Z,60
2018-03-26T06:19:40.810Z,60
2018-03-26T06:20:39.758Z,65
2018-03-26T06:21:40.513Z,65
2018-03-26T06:22:40.244Z,65
2018-03-26T06:23:40.752Z,70
2018-03-26T06:24:40.463Z,70
2018-03-26T06:25:39.934Z,70
2018-03-26T06:26:40.178Z,70
2018-03-26T06:27:40.419Z,70
2018-03-26T06:28:39.886Z,70
2018-03-26T06:29:40.387Z,70
2018-03-26T06:30:41.024Z,70
2018-03-26T06:31:40.626Z,70
2018-03-26T06:32:40.597Z,70
2018-03-26T06:33:40.324Z,70
2018-03-26T06:34:40.053Z,70
2018-03-26T06:35:40.556Z,65
2018-03-26T06:36:40.279Z,65
2018-03-26T06:37:40.534Z,65
2018-03-26T06:38:39.732Z,60
2018-03-26T06:39:39.723Z,60
2018-03-26T06:40:40.470Z,55
2018-03-26T06:41:39.942Z,60
2018-03-26T06:42:40.188Z,60
2018-03-26T06:43:40.182Z,60
2018-03-26T06:44:40.147Z,60
2018-03-26T06:45:40.396Z,65
2018-03-26T06:46:40.388Z,70
2018-03-26T06:47:40.455Z,70
2018-03-26T06:48:40.114Z,70
2018-03-26T06:49:39.829Z,70
2018-03-26T06:50:40.069Z,65
2018-03-26T06:51:40.046Z,65
2018-03-26T06:52:39.775Z,65
2018-03-26T06:53:40.288Z,65
2018-03-26T06:54:40.265Z,65
2018-03-26T06:55:39.739Z,75
2018-03-26T06:56:40.240Z,85
2018-03-26T06:57:40.222Z,90
2018-03-26T06:58:39.947Z,95
2018-03-26T06:59:39.923Z,95
2018-03-26T07:00:39.914Z,100
2018-03-26T07:01:39.643Z,110
2018-03-26T07:02:39.884Z,115
2018-03-26T07:03:39.352Z,120
2018-03-26T07:04:39.076Z,125
2018-03-26T07:05:39.324Z,125
2018-03-26T07:06:39.559Z,125
2018-03-26T07:07:39.566Z,120
2018-03-26T07:08:40.061Z,115
2018-03-26T07:09:39.516Z,110
2018-03-26T07:10:40.027Z,110
2018-03-26T07:11:39.765Z,110
2018-03-26T07:12:40.196Z,110
2018-03-26T07:13:39.984Z,105
2018-03-26T07:14:39.693Z,100
2018-03-26T07:15:39.711Z,95
2018-03-26T07:16:39.937Z,100
2018-03-26T07:17:39.656Z,105
2018-03-26T07:18:39.906Z,110
2018-03-26T07:19:39.631Z,125
2018-03-26T07:20:39.353Z,130
2018-03-26T07:21:39.103Z,130
2018-03-26T07:22:39.583Z,140
2018-03-26T07:23:39.308Z,145
2018-03-26T07:24:39.815Z,155
2018-03-26T07:25:39.291Z,165
2018-03-26T07:26:39.537Z,175
2018-03-26T07:27:38.737Z,180
2018-03-26T07:28:39.504Z,185
2018-03-26T07:29:39.230Z,195
2018-03-26T07:30:39.206Z,195
2018-03-26T07:31:39.449Z,195
2018-03-26T07:32:39.434Z,195
2018-03-26T07:33:39.161Z,200
2018-03-26T07:34:39.679Z,205
2018-03-26T07:35:38.877Z,210
2018-03-26T07:36:38.869Z,215
2018-03-26T07:37:39.359Z,220
2018-03-26T07:38:39.094Z,225
2018-03-26T07:39:39.078Z,230
2018-03-26T07:40:39.064Z,235
2018-03-26T07:41:39.307Z,240
2018-03-26T07:42:39.559Z,245
2018-03-26T07:43:39.542Z,250
2018-03-26T07:44:39.529Z,255
2018-03-26T07:45:38.997Z,260
2018-03-26T07:46:39.257Z,260
2018-03-26T07:47:39.234Z,265
2018-03-26T07:48:39.465Z,280
2018-03-26T07:49:39.195Z,285
2018-03-26T07:50:38.916Z,285
2018-03-26T07:51:38.909Z,280
2018-03-26T07:52:39.148Z,275
2018-03-26T07:53:39.138Z,275
2018-03-26T07:54:39.123Z,270
2018-03-26T07:55:39.267Z,270
2018-03-26T07:56:38.576Z,270
2018-03-26T07:57:39.342Z,270
2018-03-26T07:58:38.810Z,270
2018-03-26T07:59:38.794Z,270
2018-03-26T08:00:39.429Z,260
2018-03-26T08:01:39.292Z,250
2018-03-26T08:02:39.019Z,250
2018-03-26T08:03:38.999Z,250
2018-03-26T08:04:39.246Z,255
2018-03-26T08:05:39.236Z,260
2018-03-26T08:06:38.957Z,265
2018-03-26T08:07:38.689Z,265
2018-03-26T08:08:38.666Z,270
2018-03-26T08:09:38.921Z,260
2018-03-26T08:10:38.914Z,255
2018-03-26T08:11:39.146Z,265
2018-03-26T08:12:38.622Z,275
2018-03-26T08:13:39.118Z,280
2018-03-26T08:14:38.594Z,280
2018-03-26T08:15:39.101Z,280
2018-03-26T08:16:38.563Z,285
2018-03-26T08:17:38.287Z,290
2018-03-26T08:18:38.597Z,290
2018-03-26T08:19:38.267Z,290
2018-03-26T08:20:39.030Z,290
2018-03-26T08:21:38.248Z,295
2018-03-26T08:22:38.485Z,295
2018-03-26T08:23:38.996Z,295
2018-03-26T08:24:38.458Z,295
2018-03-26T08:25:38.444Z,305
2018-03-26T08:26:38.438Z,305
2018-03-26T08:27:38.684Z,315
2018-03-26T08:28:38.416Z,315
2018-03-26T08:29:38.391Z,315
2018-03-26T08:30:38.402Z,315
2018-03-26T08:31:38.364Z,315
2018-03-26T08:32:38.418Z,315
2018-03-26T08:33:38.626Z,315
2018-03-26T08:34:38.595Z,320
2018-03-26T08:35:38.586Z,320
2018-03-26T08:36:38.664Z,325
2018-03-26T08:37:38.291Z,320
2018-03-26T08:38:38.801Z,320
2018-03-26T08:39:38.535Z,320
2018-03-26T08:40:38.251Z,325
2018-03-26T08:41:38.510Z,325
2018-03-26T08:42:39.026Z,325
2018-03-26T08:43:38.213Z,330
2018-03-26T08:44:38.468Z,325
2018-03-26T08:45:38.704Z,325
2018-03-26T08:46:38.444Z,320
2018-03-26T08:47:38.423Z,320
2018-03-26T08:48:38.419Z,325
2018-03-26T08:49:38.414Z,335
2018-03-26T08:50:37.868Z,340
2018-03-26T08:51:38.118Z,345
2018-03-26T08:52:38.620Z,350
2018-03-26T08:53:38.491Z,350
2018-03-26T08:54:38.334Z,355
2018-03-26T08:55:38.329Z,360
2018-03-26T08:56:38.580Z,365
2018-03-26T08:57:38.306Z,365
2018-03-26T08:58:38.030Z,365
2018-03-26T08:59:38.277Z,365
2018-03-26T09:00:37.999Z,370
2018-03-26T09:01:38.509Z,375
2018-03-26T09:02:37.726Z,370
2018-03-26T09:03:37.968Z,370
2018-03-26T09:04:37.707Z,370
2018-03-26T09:05:38.203Z,375
2018-03-26T09:06:37.938Z,380
2018-03-26T09:07:37.922Z,380
2018-03-26T09:08:38.178Z,380
2018-03-26T09:09:37.891Z,385
2018-03-26T09:10:38.140Z,380
2018-03-26T09:11:38.134Z,380
2018-03-26T09:12:37.861Z,380
2018-03-26T09:13:38.385Z,385
2018-03-26T09:14:38.345Z,380
2018-03-26T09:15:37.304Z,380
2018-03-26T09:16:37.551Z,385
2018-03-26T09:17:37.900Z,380
2018-03-26T09:18:38.304Z,375
2018-03-26T09:19:37.519Z,380
2018-03-26T09:20:38.025Z,380
2018-03-26T09:21:38.003Z,375
2018-03-26T09:22:37.734Z,365
2018-03-26T09:23:37.719Z,360
2018-03-26T09:24:38.012Z,370
2018-03-26T09:25:38.238Z,375
2018-03-26T09:26:37.943Z,380
2018-03-26T09:27:37.939Z,390
2018-03-26T09:28:37.922Z,390
2018-03-26T09:29:37.912Z,390
2018-03-26T09:30:38.154Z,390
2018-03-26T09:31:37.361Z,395
2018-03-26T09:32:37.868Z,395
2018-03-26T09:33:37.601Z,395
2018-03-26T09:34:38.111Z,395
2018-03-26T09:35:37.839Z,390
2018-03-26T09:36:37.562Z,390
2018-03-26T09:37:37.549Z,390
2018-03-26T09:38:37.806Z,390
2018-03-26T09:39:37.529Z,390
2018-03-26T09:40:37.573Z,385
2018-03-26T09:41:37.769Z,385
2018-03-26T09:42:37.500Z,385
2018-03-26T09:43:37.222Z,385
2018-03-26T09:44:37.733Z,385
2018-03-26T09:45:37.712Z,385
2018-03-26T09:46:37.722Z,385
2018-03-26T09:47:37.434Z,385
2018-03-26T09:48:37.685Z,370
2018-03-26T09:49:37.416Z,370
2018-03-26T09:50:37.403Z,385
2018-03-26T09:51:37.650Z,390
2018-03-26T09:52:37.382Z,390
2018-03-26T09:53:37.416Z,390
2018-03-26T09:54:36.836Z,380
2018-03-26T09:55:37.603Z,375
2018-03-26T09:56:37.867Z,370
2018-03-26T09:57:37.584Z,380
2018-03-26T09:58:37.051Z,390
2018-03-26T09:59:37.811Z,380
2018-03-26T10:00:37.800Z,350
2018-03-26T10:01:37.532Z,345
2018-03-26T10:02:37.533Z,350
2018-03-26T10:03:37.773Z,355
2018-03-26T10:04:37.505Z,350
2018-03-26T10:05:37.748Z,330
2018-03-26T10:06:37.483Z,325
2018-03-26T10:07:37.723Z,330
2018-03-26T10:08:37.450Z,325
2018-03-26T10:09:37.445Z,320
2018-03-26T10:10:37.180Z,330
2018-03-26T10:11:37.162Z,335
2018-03-26T10:12:37.413Z,335
2018-03-26T10:13:36.884Z,325
2018-03-26T10:14:37.139Z,320
2018-03-26T10:15:37.379Z,320
2018-03-26T10:16:37.118Z,295
2018-03-26T10:17:37.353Z,275
2018-03-26T10:18:37.089Z,260
2018-03-26T10:19:37.331Z,240
2018-03-26T10:20:37.330Z,240
2018-03-26T10:21:36.791Z,245
2018-03-26T10:22:37.298Z,260
2018-03-26T10:23:37.288Z,280
2018-03-26T10:24:37.273Z,270
2018-03-26T10:25:37.534Z,260
2018-03-26T10:26:36.992Z,260
2018-03-26T10:27:37.493Z,260
2018-03-26T10:28:37.222Z,260
2018-03-26T10:29:36.965Z,260
2018-03-26T10:30:36.942Z,255
2018-03-26T10:31:36.934Z,255
2018-03-26T10:32:37.180Z,250
2018-03-26T10:33:36.914Z,245
2018-03-26T10:34:36.895Z,230
2018-03-26T10:35:37.148Z,215
2018-03-26T10:36:36.886Z,205
2018-03-26T10:37:36.350Z,200
2018-03-26T10:38:37.514Z,200
2018-03-26T10:39:37.365Z,205
2018-03-26T10:40:36.833Z,210
2018-03-26T10:41:36.820Z,205
2018-03-26T10:42:37.056Z,210
2018-03-26T10:43:37.045Z,210
2018-03-26T10:44:36.783Z,215
2018-03-26T10:45:37.295Z,215
2018-03-26T10:46:36.759Z,210
2018-03-26T10:47:37.008Z,200
2018-03-26T10:48:36.762Z,195
2018-03-26T10:49:37.000Z,195
2018-03-26T10:50:37.235Z,200
2018-03-26T10:51:36.695Z,205
2018-03-26T10:52:36.939Z,205
2018-03-26T10:53:36.933Z,205
2018-03-26T10:54:36.662Z,200
2018-03-26T10:55:36.905Z,180
2018-03-26T10:56:36.904Z,160
2018-03-26T10:57:36.370Z,140
2018-03-26T10:58:37.136Z,130
2018-03-26T10:59:36.340Z,125
2018-03-26T11:00:37.197Z,120
2018-03-26T11:01:36.061Z,115
2018-03-26T11:02:36.556Z,115
2018-03-26T11:03:36.820Z,120
2018-03-26T11:04:37.065Z,125
2018-03-26T11:05:36.577Z,130
2018-03-26T11:06:36.768Z,135
2018-03-26T11:07:37.008Z,140
2018-03-26T11:08:37.035Z,140
2018-03-26T11:09:36.737Z,140
2018-03-26T11:10:36.453Z,135
2018-03-26T11:11:36.451Z,135
2018-03-26T11:12:36.988Z,145
2018-03-26T11:13:36.680Z,150
2018-03-26T11:14:36.415Z,160
2018-03-26T11:15:36.395Z,165
2018-03-26T11:16:36.412Z,170
2018-03-26T11:17:36.892Z,175
2018-03-26T11:18:36.893Z,180
2018-03-26T11:19:36.610Z,185
2018-03-26T11:20:36.682Z,190
2018-03-26T11:21:36.590Z,200
2018-03-26T11:22:36.317Z,210
2018-03-26T11:23:36.043Z,220
2018-03-26T11:24:36.539Z,215
2018-03-26T11:25:36.274Z,200
2018-03-26T11:26:36.259Z,185
2018-03-26T11:27:36.258Z,175
2018-03-26T11:28:36.228Z,175
2018-03-26T11:29:36.497Z,180
2018-03-26T11:30:35.953Z,185
2018-03-26T11:31:36.461Z,190
2018-03-26T11:32:36.709Z,195
2018-03-26T11:33:36.424Z,195
2018-03-26T11:34:36.675Z,200
2018-03-26T11:35:36.146Z,205
2018-03-26T11:36:36.137Z,210
2018-03-26T11:37:36.112Z,210
2018-03-26T11:38:36.363Z,200
2018-03-26T11:39:36.360Z,200
2018-03-26T11:40:36.090Z,205
2018-03-26T11:41:36.064Z,205
2018-03-26T11:42:35.542Z,205
2018-03-26T11:43:36.051Z,195
2018-03-26T11:44:36.031Z,190
2018-03-26T11:45:36.019Z,185
2018-03-26T11:46:36.013Z,180
2018-03-26T11:47:35.989Z,180
2018-03-26T11:48:36.495Z,175
2018-03-26T11:49:36.403Z,175
2018-03-26T11:50:36.216Z,175
2018-03-26T11:51:36.202Z,175
2018-03-26T11:52:35.667Z,175
2018-03-26T11:53:35.930Z,180
2018-03-26T11:54:35.907Z,185
2018-03-26T11:55:35.628Z,190
2018-03-26T11:56:36.137Z,195
2018-03-26T11:57:35.873Z,195
2018-03-26T11:58:35.858Z,200
2018-03-26T11:59:35.585Z,205
2018-03-26T12:00:35.569Z,210
2018-03-26T12:01:35.556Z,215
2018-03-26T12:02:36.066Z,220
2018-03-26T12:03:36.051Z,220
2018-03-26T12:04:35.771Z,225
2018-03-26T12:05:36.018Z,230
2018-03-26T12:06:36.010Z,230
2018-03-26T12:07:35.485Z,225
2018-03-26T12:08:35.985Z,210
2018-03-26T12:09:35.710Z,200
2018-03-26T12:10:35.960Z,195
2018-03-26T12:11:35.947Z,195
2018-03-26T12:12:36.183Z,195
2018-03-26T12:13:35.912Z,200
2018-03-26T12:14:36.269Z,200
2018-03-26T12:15:35.641Z,195
2018-03-26T12:16:35.876Z,195
2018-03-26T12:17:35.867Z,200
2018-03-26T12:18:35.591Z,195
2018-03-26T12:19:35.578Z,190
2018-03-26T12:20:35.314Z,185
2018-03-26T12:21:35.300Z,190
2018-03-26T12:22:35.580Z,190
2018-03-26T12:23:35.798Z,185
2018-03-26T12:24:35.516Z,185
2018-03-26T12:25:35.766Z,185
2018-03-26T12:26:35.490Z,190
2018-03-26T12:27:35.797Z,195
2018-03-26T12:28:35.984Z,190
2018-03-26T12:29:35.448Z,180
2018-03-26T12:30:35.964Z,170
2018-03-26T12:31:35.434Z,160
2018-03-26T12:32:35.489Z,150
2018-03-26T12:33:35.918Z,140
2018-03-26T12:34:35.913Z,140
2018-03-26T12:35:35.896Z,145
2018-03-26T12:36:35.879Z,140
2018-03-26T12:37:35.599Z,130
2018-03-26T12:38:35.593Z,120
2018-03-26T12:39:35.324Z,110
2018-03-26T12:40:35.307Z,115
2018-03-26T12:41:35.299Z,110
2018-03-26T12:42:35.287Z,120
2018-03-26T12:43:35.791Z,130
2018-03-26T12:44:35.256Z,140
2018-03-26T12:45:35.249Z,140
2018-03-26T12:46:35.492Z,135
2018-03-26T12:47:35.476Z,130
2018-03-26T12:48:35.204Z,135
2018-03-26T12:49:35.714Z,135
2018-03-26T12:50:35.444Z,130
2018-03-26T12:51:35.681Z,135
2018-03-26T12:52:34.892Z,140
2018-03-26T12:53:35.151Z,140
2018-03-26T12:54:35.123Z,145
2018-03-26T12:55:34.856Z,150
2018-03-26T12:56:35.100Z,155
2018-03-26T12:57:35.599Z,155
2018-03-26T12:58:35.602Z,150
2018-03-26T12:59:35.065Z,150
2018-03-26T13:00:35.312Z,150
2018-03-26T13:01:35.289Z,150
2018-03-26T13:02:34.507Z,150
2018-03-26T13:03:35.273Z,155
2018-03-26T13:04:35.249Z,160
2018-03-26T13:05:35.495Z,160
2018-03-26T13:06:35.231Z,160
2018-03-26T13:07:35.481Z,160
2018-03-26T13:08:35.184Z,160
2018-03-26T13:09:34.659Z,155
2018-03-26T13:10:35.412Z,150
2018-03-26T13:11:35.158Z,145
2018-03-26T13:12:35.138Z,145
2018-03-26T13:13:34.866Z,145
2018-03-26T13:14:34.849Z,145
2018-03-26T13:15:35.144Z,145
2018-03-26T13:16:35.356Z,145
2018-03-26T13:17:35.333Z,150
2018-03-26T13:18:35.061Z,155
2018-03-26T13:19:35.302Z,155
2018-03-26T13:20:35.299Z,150
2018-03-26T13:21:35.030Z,145
2018-03-26T13:22:35.005Z,145
2018-03-26T13:23:34.737Z,140
2018-03-26T13:24:34.989Z,135
2018-03-26T13:25:34.697Z,135
2018-03-26T13:26:35.229Z,130
2018-03-26T13:27:34.681Z,130
2018-03-26T13:28:34.966Z,130
2018-03-26T13:29:35.163Z,130
2018-03-26T13:30:34.885Z,135
2018-03-26T13:31:34.874Z,125
2018-03-26T13:32:34.606Z,110
2018-03-26T13:33:35.102Z,100
2018-03-26T13:34:34.578Z,100
2018-03-26T13:35:34.829Z,105
2018-03-26T13:36:34.808Z,110
2018-03-26T13:37:34.542Z,105
2018-03-26T13:38:34.786Z,105
2018-03-26T13:39:35.025Z,100
2018-03-26T13:40:34.508Z,105
2018-03-26T13:41:35.013Z,110
2018-03-26T13:42:34.981Z,110
2018-03-26T13:43:34.713Z,105
2018-03-26T13:44:34.181Z,100
2018-03-26T13:45:34.680Z,95
2018-03-26T13:46:34.929Z,95
2018-03-26T13:47:34.913Z,95
2018-03-26T13:48:34.393Z,90
2018-03-26T13:49:34.653Z,80
2018-03-26T13:50:34.613Z,75
2018-03-26T13:51:34.610Z,75
2018-03-26T13:52:34.321Z,80
2018-03-26T13:53:34.055Z,85
2018-03-26T13:54:34.309Z,85
2018-03-26T13:55:34.537Z,85
2018-03-26T13:56:34.269Z,80
2018-03-26T13:57:34.519Z,80
2018-03-26T13:58:34.042Z,80
2018-03-26T13:59:34.753Z,85
2018-03-26T14:00:34.474Z,80
2018-03-26T14:01:34.199Z,80
2018-03-26T14:02:34.188Z,75
2018-03-26T14:03:34.169Z,80
2018-03-26T14:04:34.155Z,80
2018-03-26T14:05:34.137Z,80
2018-03-26T14:06:34.223Z,80
2018-03-26T14:07:34.371Z,85
2018-03-26T14:08:34.353Z,90
2018-03-26T14:09:34.352Z,95
2018-03-26T14:10:34.334Z,100
2018-03-26T14:11:34.060Z,105
2018-03-26T14:12:34.550Z,110